Skip Navigation Links Skip Navigation Links

Current Weather

Heathrow, London

For information only: do not use for flight planning or navigation.
Latest weather
Observation time Monday, July 23, 2018 1:50 PM BST
Local time Monday, July 23, 2018 2:11 PM BST
Flight conditions Visual Meteorological Conditions
Winds
Wind direction South-Southwest (200°)
Winds variable from 150° to 240°
Wind speed 9 mph
Visibility 6.2 mi.
Sky condition
Ceiling unlimited
Temperature 88°F
Dewpoint 57°F
Altimeter 29.97 in.Hg
Derived measurements
Relative humidity 36%
Heat index 88°F
Density altitude 1995 ft.
Remarks
Corrected report.
Fully automated report.
No significant changes expected in the next two hours.
METAR COR EGLL 231250Z AUTO 20008KT 150V240 9999 NCD 31/14 Q1015 NOSIG

Settings

Location code

InnerDrive.Weather 4.0.6770.0 Release CLR 4.0.30319.42000
Copyright ©2018 Inner Drive Technology. All rights reserved. Portions Copyright ©1986-2018 David Braverman.

Find weather

Site navigation


Skip Navigation Links

Place info

Page info

PayPal - The safer, easier way to pay online!

Return home.

Copyright ©2018 Inner Drive Technology. Purveyors of fine, hand-crafted computer software. Page printed 2018-07-23T13:11:22 UTC.